createdAt,value
2022-12-26T00:01:35.408Z,1.00
2022-12-26T00:04:02.110Z,99.90
2022-12-26T00:06:28.989Z,99.90
2022-12-26T00:08:55.560Z,99.90
2022-12-26T00:11:22.150Z,99.90
2022-12-26T00:13:52.883Z,99.90
2022-12-26T00:16:19.912Z,99.90
2022-12-26T00:18:46.542Z,99.90
2022-12-26T00:21:13.499Z,1.00
2022-12-26T00:23:40.147Z,1.00
2022-12-26T00:26:07.668Z,99.90
2022-12-26T00:28:34.255Z,99.90
2022-12-26T00:31:07.974Z,1.00
2022-12-26T00:33:35.457Z,99.90
2022-12-26T00:36:02.719Z,99.90
2022-12-26T00:38:29.375Z,99.90
2022-12-26T00:40:55.919Z,99.90
2022-12-26T00:43:22.481Z,99.90
2022-12-26T00:45:49.077Z,99.90
2022-12-26T00:48:15.647Z,99.90
2022-12-26T00:50:42.186Z,99.90
2022-12-26T00:53:08.747Z,99.90
2022-12-26T00:55:35.297Z,99.90
2022-12-26T00:58:01.887Z,99.90
2022-12-26T01:00:28.524Z,99.90
2022-12-26T01:02:55.355Z,99.90
2022-12-26T01:05:22.666Z,99.90
2022-12-26T01:08:20.145Z,99.90
2022-12-26T01:10:35.728Z,99.90
2022-12-26T01:13:02.274Z,83.40
2022-12-26T01:15:28.826Z,21.70
2022-12-26T01:17:55.422Z,1.00
2022-12-26T01:20:21.978Z,1.00
2022-12-26T01:22:48.527Z,1.00
2022-12-26T01:25:15.075Z,1.00
2022-12-26T01:27:41.629Z,1.00
2022-12-26T01:30:08.393Z,1.00
2022-12-26T01:32:34.941Z,1.00
2022-12-26T01:35:01.500Z,1.00
2022-12-26T01:37:28.043Z,1.00
2022-12-26T01:39:54.606Z,1.00
2022-12-26T01:42:21.976Z,1.00
2022-12-26T01:45:11.880Z,1.00
2022-12-26T01:47:39.947Z,1.00
2022-12-26T01:50:06.782Z,1.00
2022-12-26T01:52:35.732Z,1.00
2022-12-26T01:55:02.283Z,1.00
2022-12-26T01:57:30.539Z,1.00
2022-12-26T01:59:57.276Z,1.00
2022-12-26T02:02:24.022Z,1.00
2022-12-26T02:05:09.290Z,1.00
2022-12-26T02:07:36.397Z,1.00
2022-12-26T02:10:03.164Z,1.00
2022-12-26T02:12:35.018Z,1.00
2022-12-26T02:15:05.486Z,1.00
2022-12-26T02:17:32.047Z,1.00
2022-12-26T02:20:05.491Z,1.00
2022-12-26T02:22:35.004Z,1.00
2022-12-26T02:25:19.874Z,1.00
2022-12-26T02:27:49.511Z,1.00
2022-12-26T02:30:22.054Z,1.00
2022-12-26T02:32:48.538Z,1.00
2022-12-26T02:35:18.047Z,1.00
2022-12-26T02:37:49.920Z,1.00
2022-12-26T02:40:22.826Z,1.00
2022-12-26T02:43:00.086Z,1.00
2022-12-26T02:45:59.146Z,1.00
2022-12-26T02:48:39.629Z,1.00
2022-12-26T02:51:24.890Z,1.00
2022-12-26T02:54:17.212Z,1.00
2022-12-26T02:57:04.085Z,2.30
2022-12-26T02:59:55.842Z,62.70
2022-12-26T03:02:43.873Z,99.90
2022-12-26T03:05:31.319Z,99.90
2022-12-26T03:08:16.792Z,99.90
2022-12-26T03:11:02.077Z,99.90
2022-12-26T03:13:29.983Z,99.90
2022-12-26T03:16:22.569Z,1.00
2022-12-26T03:18:59.472Z,1.00
2022-12-26T03:21:27.908Z,1.00
2022-12-26T03:23:54.518Z,1.00
2022-12-26T03:26:39.948Z,1.00
2022-12-26T03:29:29.355Z,1.00
2022-12-26T03:31:55.936Z,1.40
2022-12-26T03:34:22.522Z,99.90
2022-12-26T03:36:52.150Z,99.90
2022-12-26T03:39:55.289Z,99.90
2022-12-26T03:42:43.259Z,99.90
2022-12-26T03:45:41.246Z,46.50
2022-12-26T03:48:45.146Z,1.00
2022-12-26T03:51:38.339Z,1.00
2022-12-26T03:54:25.089Z,1.00
2022-12-26T03:57:20.598Z,1.00
2022-12-26T04:00:07.500Z,1.00
2022-12-26T04:02:52.556Z,1.00
2022-12-26T04:05:37.537Z,1.00
2022-12-26T04:08:24.634Z,1.00
2022-12-26T04:11:12.612Z,1.00
2022-12-26T04:14:07.171Z,1.00
2022-12-26T04:16:58.450Z,1.00
2022-12-26T04:19:27.855Z,1.00
2022-12-26T04:22:31.104Z,1.00
2022-12-26T04:25:49.418Z,1.00
2022-12-26T04:28:32.261Z,1.00
2022-12-26T04:31:19.064Z,1.00
2022-12-26T04:34:06.308Z,1.00
2022-12-26T04:37:10.429Z,1.00
2022-12-26T04:39:55.456Z,1.00
2022-12-26T04:42:40.689Z,1.00
2022-12-26T04:45:07.415Z,1.00
2022-12-26T04:47:33.948Z,1.00
2022-12-26T04:50:12.628Z,1.00
2022-12-26T04:52:57.931Z,1.00
2022-12-26T04:55:28.192Z,1.00
2022-12-26T04:57:54.786Z,1.00
2022-12-26T05:00:21.894Z,1.00
2022-12-26T05:03:07.214Z,1.00
2022-12-26T05:05:54.365Z,1.00
2022-12-26T05:09:03.048Z,1.00
2022-12-26T05:11:30.184Z,1.00
2022-12-26T05:13:56.912Z,1.00
2022-12-26T05:16:42.182Z,1.00
2022-12-26T05:19:35.296Z,14.90
2022-12-26T05:22:20.746Z,99.90
2022-12-26T05:25:05.677Z,99.90
2022-12-26T05:27:55.171Z,99.90
2022-12-26T05:30:21.931Z,99.90
2022-12-26T05:33:07.148Z,99.90
2022-12-26T05:35:33.924Z,99.90
2022-12-26T05:38:00.715Z,99.90
2022-12-26T05:40:27.287Z,99.90
2022-12-26T05:42:53.825Z,1.00
2022-12-26T05:45:20.421Z,1.00
2022-12-26T05:47:51.680Z,1.00
2022-12-26T05:50:18.661Z,1.00
2022-12-26T05:52:45.196Z,1.00
2022-12-26T05:55:11.758Z,1.00
2022-12-26T05:57:38.450Z,1.00
2022-12-26T06:00:05.336Z,1.00
2022-12-26T06:02:31.925Z,1.00
2022-12-26T06:04:58.553Z,1.00
2022-12-26T06:07:25.093Z,1.00
2022-12-26T06:09:51.653Z,1.00
2022-12-26T06:12:18.389Z,1.00
2022-12-26T06:14:44.973Z,1.00
2022-12-26T06:17:11.528Z,1.00
2022-12-26T06:19:43.123Z,1.00
2022-12-26T06:22:13.149Z,1.00
2022-12-26T06:24:39.720Z,1.00
2022-12-26T06:27:06.262Z,1.00
2022-12-26T06:29:33.133Z,1.00
2022-12-26T06:31:59.844Z,1.00
2022-12-26T06:34:27.656Z,9.10
2022-12-26T06:36:55.448Z,17.90
2022-12-26T06:39:22.416Z,39.40
2022-12-26T06:41:48.953Z,99.90
2022-12-26T06:44:18.538Z,99.90
2022-12-26T06:46:45.521Z,99.90
2022-12-26T06:49:12.119Z,99.90
2022-12-26T06:51:38.721Z,99.90
2022-12-26T06:54:05.314Z,99.90
2022-12-26T06:56:32.087Z,99.90
2022-12-26T06:58:59.441Z,99.90
2022-12-26T07:01:26.384Z,99.90
2022-12-26T07:03:53.244Z,99.90
2022-12-26T07:06:26.610Z,99.90
2022-12-26T07:08:53.514Z,99.90
2022-12-26T07:11:27.486Z,99.90
2022-12-26T07:13:54.218Z,99.90
2022-12-26T07:16:20.843Z,99.90
2022-12-26T07:18:47.446Z,99.90
2022-12-26T07:21:14.726Z,99.90
2022-12-26T07:23:41.375Z,99.90
2022-12-26T07:26:07.956Z,99.90
2022-12-26T07:28:34.726Z,99.90
2022-12-26T07:31:01.339Z,99.90
2022-12-26T07:33:28.213Z,99.90
2022-12-26T07:35:54.803Z,99.90
2022-12-26T07:38:21.356Z,99.90
2022-12-26T07:40:47.914Z,99.90
2022-12-26T07:43:14.537Z,99.90
2022-12-26T07:45:45.536Z,1.00
2022-12-26T07:48:12.445Z,1.00
2022-12-26T07:50:39.004Z,1.00
2022-12-26T07:53:05.603Z,1.00
2022-12-26T07:55:32.163Z,1.00
2022-12-26T07:57:58.702Z,1.00
2022-12-26T08:00:25.279Z,1.00
2022-12-26T08:02:53.240Z,1.00
2022-12-26T08:05:20.950Z,1.00
2022-12-26T08:07:48.417Z,1.00
2022-12-26T08:10:15.588Z,1.00
2022-12-26T08:12:42.125Z,5.60
2022-12-26T08:15:10.016Z,45.90
2022-12-26T08:17:36.602Z,79.40
2022-12-26T08:20:03.539Z,99.90
2022-12-26T08:22:30.106Z,99.90
2022-12-26T08:24:56.692Z,99.90
2022-12-26T08:27:23.251Z,99.90
2022-12-26T08:29:49.869Z,99.90
2022-12-26T08:32:16.469Z,99.90
2022-12-26T08:34:43.068Z,99.90
2022-12-26T08:37:09.713Z,99.90
2022-12-26T08:39:36.325Z,99.90
2022-12-26T08:42:02.904Z,99.90
2022-12-26T08:44:29.569Z,99.90
2022-12-26T08:46:56.170Z,99.90
2022-12-26T08:49:22.740Z,99.90
2022-12-26T08:51:49.334Z,99.90
2022-12-26T08:54:15.883Z,99.90
2022-12-26T08:56:42.890Z,99.90
2022-12-26T08:59:09.445Z,72.80
2022-12-26T09:01:36.387Z,1.00
2022-12-26T09:04:03.683Z,1.00
2022-12-26T09:06:32.011Z,1.00
2022-12-26T09:08:58.927Z,1.00
2022-12-26T09:11:28.910Z,1.00
2022-12-26T09:13:55.872Z,1.00
2022-12-26T09:16:24.809Z,1.00
2022-12-26T09:18:54.870Z,1.00
2022-12-26T09:21:21.456Z,1.00
2022-12-26T09:23:48.000Z,1.00
2022-12-26T09:26:15.478Z,1.00
2022-12-26T09:28:42.170Z,1.00
2022-12-26T09:31:10.412Z,1.00
2022-12-26T09:33:38.496Z,1.00
2022-12-26T09:36:12.529Z,1.00
2022-12-26T09:38:41.054Z,1.00
2022-12-26T09:41:10.945Z,1.00
2022-12-26T09:43:50.036Z,1.00
2022-12-26T09:46:19.275Z,1.00
2022-12-26T09:48:47.175Z,1.00
2022-12-26T09:51:13.981Z,1.00
2022-12-26T09:53:41.847Z,1.00
2022-12-26T09:56:23.623Z,1.00
2022-12-26T09:59:00.611Z,1.00
2022-12-26T10:01:28.815Z,1.00
2022-12-26T10:03:56.799Z,1.00
2022-12-26T10:06:24.288Z,1.00
2022-12-26T10:08:56.880Z,1.00
2022-12-26T10:11:46.880Z,1.00
2022-12-26T10:14:21.957Z,1.00
2022-12-26T10:16:57.019Z,99.90
2022-12-26T10:19:32.929Z,99.90
2022-12-26T10:22:04.276Z,54.70
2022-12-26T10:24:31.677Z,1.00
2022-12-26T10:27:02.223Z,1.00
2022-12-26T10:29:39.218Z,1.00
2022-12-26T10:32:06.964Z,1.00
2022-12-26T10:34:37.831Z,1.00
2022-12-26T10:37:05.644Z,1.00
2022-12-26T10:39:34.278Z,99.90
2022-12-26T10:42:03.592Z,99.90
2022-12-26T10:44:30.189Z,99.90
2022-12-26T10:47:06.112Z,1.00
2022-12-26T10:49:32.672Z,99.90
2022-12-26T10:51:59.729Z,99.90
2022-12-26T10:54:26.716Z,99.90
2022-12-26T10:56:53.500Z,99.90
2022-12-26T10:59:21.047Z,99.90
2022-12-26T11:01:47.878Z,99.90
2022-12-26T11:04:18.869Z,99.90
2022-12-26T11:06:52.494Z,99.90
2022-12-26T11:09:28.168Z,99.90
2022-12-26T11:11:54.720Z,1.00
2022-12-26T11:14:38.483Z,1.00
2022-12-26T11:17:07.228Z,99.90
2022-12-26T11:19:34.993Z,99.90
2022-12-26T11:22:14.893Z,99.90
2022-12-26T11:24:41.470Z,99.90
2022-12-26T11:27:17.938Z,99.90
2022-12-26T11:29:44.472Z,38.90
2022-12-26T11:32:13.973Z,1.00
2022-12-26T11:34:46.193Z,1.00
2022-12-26T11:37:26.613Z,1.00
2022-12-26T11:39:53.172Z,1.00
2022-12-26T11:42:20.557Z,99.90
2022-12-26T11:44:49.248Z,99.90
2022-12-26T11:47:19.619Z,99.90
2022-12-26T11:50:04.959Z,99.90
2022-12-26T11:52:45.723Z,99.90
2022-12-26T11:55:32.441Z,99.90
2022-12-26T11:58:07.995Z,99.90
2022-12-26T12:00:35.162Z,99.90
2022-12-26T12:03:02.560Z,99.90
2022-12-26T12:05:46.843Z,72.10
2022-12-26T12:08:25.649Z,1.00
2022-12-26T12:11:00.215Z,1.00
2022-12-26T12:13:40.976Z,1.00
2022-12-26T12:16:07.994Z,6.00
2022-12-26T12:18:52.941Z,1.00
2022-12-26T12:21:23.977Z,1.00
2022-12-26T12:24:08.967Z,30.90
2022-12-26T12:26:57.673Z,97.10
2022-12-26T12:29:42.649Z,99.90
2022-12-26T12:32:13.546Z,99.90
2022-12-26T12:35:02.899Z,99.90
2022-12-26T12:37:29.496Z,99.90
2022-12-26T12:40:14.846Z,99.90
2022-12-26T12:42:47.495Z,99.90
2022-12-26T12:45:17.610Z,99.90
2022-12-26T12:47:44.159Z,99.90
2022-12-26T12:50:17.778Z,99.90
2022-12-26T12:52:50.534Z,99.90
2022-12-26T12:55:23.038Z,99.90
2022-12-26T12:57:53.825Z,99.90
2022-12-26T13:00:23.992Z,99.90
2022-12-26T13:02:55.932Z,99.90
2022-12-26T13:05:22.600Z,99.90
2022-12-26T13:08:09.409Z,1.00
2022-12-26T13:10:38.081Z,1.00
2022-12-26T13:13:13.747Z,1.00
2022-12-26T13:15:42.237Z,1.00
2022-12-26T13:18:13.419Z,1.00
2022-12-26T13:20:42.980Z,1.00
2022-12-26T13:23:44.351Z,1.00
2022-12-26T13:26:11.738Z,1.00
2022-12-26T13:28:40.925Z,1.00
2022-12-26T13:31:07.466Z,1.00
2022-12-26T13:33:34.040Z,1.00
2022-12-26T13:36:01.517Z,99.90
2022-12-26T13:39:07.835Z,99.90
2022-12-26T13:41:53.349Z,99.90
2022-12-26T13:44:20.301Z,67.50
2022-12-26T13:46:46.931Z,1.00
2022-12-26T13:49:35.964Z,99.90
2022-12-26T13:52:12.058Z,99.90
2022-12-26T13:54:48.345Z,99.90
2022-12-26T13:57:27.028Z,99.90
2022-12-26T14:00:00.582Z,99.90
2022-12-26T14:03:15.423Z,99.90
2022-12-26T14:05:30.535Z,99.90
2022-12-26T14:08:06.406Z,99.90
2022-12-26T14:10:38.530Z,99.90
2022-12-26T14:13:23.824Z,99.90
2022-12-26T14:15:50.577Z,99.90
2022-12-26T14:18:36.278Z,99.90
2022-12-26T14:21:16.756Z,99.90
2022-12-26T14:23:45.731Z,99.90
2022-12-26T14:26:18.421Z,99.90
2022-12-26T14:29:03.902Z,99.90
2022-12-26T14:31:42.658Z,1.00
2022-12-26T14:34:12.591Z,1.00
2022-12-26T14:36:45.265Z,1.00
2022-12-26T14:39:30.503Z,1.00
2022-12-26T14:42:24.975Z,1.00
2022-12-26T14:44:57.766Z,1.00
2022-12-26T14:47:43.187Z,1.00
2022-12-26T14:50:28.556Z,1.00
2022-12-26T14:52:55.162Z,1.00
2022-12-26T14:56:01.126Z,1.00
2022-12-26T14:58:38.516Z,1.00
2022-12-26T15:01:15.790Z,1.00
2022-12-26T15:03:54.522Z,1.00
2022-12-26T15:06:21.665Z,1.00
2022-12-26T15:08:54.006Z,1.00
2022-12-26T15:11:35.996Z,1.00
2022-12-26T15:14:14.308Z,1.00
2022-12-26T15:16:53.369Z,1.00
2022-12-26T15:19:39.221Z,1.00
2022-12-26T15:22:28.758Z,99.90
2022-12-26T15:25:19.302Z,99.90
2022-12-26T15:27:57.102Z,99.90
2022-12-26T15:30:42.580Z,1.00
2022-12-26T15:33:28.168Z,1.00
2022-12-26T15:36:13.432Z,1.00
2022-12-26T15:38:45.824Z,1.00
2022-12-26T15:41:29.166Z,1.00
2022-12-26T15:44:11.058Z,1.00
2022-12-26T15:46:42.081Z,1.00
2022-12-26T15:49:21.197Z,1.00
2022-12-26T15:51:52.345Z,1.00
2022-12-26T15:54:24.275Z,1.00
2022-12-26T15:56:56.268Z,1.00
2022-12-26T15:59:31.911Z,1.00
2022-12-26T16:01:58.983Z,1.00
2022-12-26T16:04:30.591Z,1.00
2022-12-26T16:07:15.884Z,1.00
2022-12-26T16:09:49.883Z,25.80
2022-12-26T16:12:21.170Z,99.90
2022-12-26T16:14:48.003Z,99.90
2022-12-26T16:17:14.880Z,99.90
2022-12-26T16:19:41.949Z,99.90
2022-12-26T16:22:29.851Z,99.90
2022-12-26T16:24:56.477Z,99.90
2022-12-26T16:27:23.530Z,99.90
2022-12-26T16:29:51.441Z,99.90
2022-12-26T16:32:18.986Z,99.90
2022-12-26T16:34:45.570Z,99.90
2022-12-26T16:37:22.081Z,99.90
2022-12-26T16:40:04.965Z,99.90
2022-12-26T16:42:31.716Z,81.90
2022-12-26T16:44:58.546Z,61.10
2022-12-26T16:47:25.258Z,76.60
2022-12-26T16:49:52.051Z,87.30
2022-12-26T16:52:51.169Z,28.40
2022-12-26T16:55:36.534Z,21.80
2022-12-26T16:58:26.754Z,27.30
2022-12-26T17:01:13.578Z,1.00
2022-12-26T17:03:56.431Z,1.00
2022-12-26T17:06:37.983Z,1.00
2022-12-26T17:09:11.642Z,1.00
2022-12-26T17:11:39.657Z,1.00
2022-12-26T17:14:06.935Z,1.00
2022-12-26T17:16:33.553Z,1.00
2022-12-26T17:19:09.354Z,1.00
2022-12-26T17:21:37.219Z,1.00
2022-12-26T17:24:05.168Z,1.00
2022-12-26T17:26:31.720Z,1.00
2022-12-26T17:28:58.557Z,1.00
2022-12-26T17:31:37.920Z,1.00
2022-12-26T17:34:14.626Z,1.00
2022-12-26T17:39:29.413Z,1.00
2022-12-26T17:41:59.562Z,1.00
2022-12-26T17:44:32.914Z,1.00
2022-12-26T17:47:01.004Z,1.00
2022-12-26T17:49:27.647Z,1.00
2022-12-26T17:52:01.463Z,1.00
2022-12-26T17:54:28.436Z,1.00
2022-12-26T17:56:55.017Z,1.00
2022-12-26T17:59:21.575Z,1.00
2022-12-26T18:01:48.261Z,99.90
2022-12-26T18:04:14.905Z,99.90
2022-12-26T18:06:42.189Z,99.90
2022-12-26T18:09:10.988Z,99.90
2022-12-26T18:11:38.731Z,99.90
2022-12-26T18:14:06.013Z,99.90
2022-12-26T18:16:33.562Z,99.90
2022-12-26T18:19:00.194Z,99.90
2022-12-26T18:21:26.745Z,71.50
2022-12-26T18:23:53.569Z,39.40
2022-12-26T18:26:23.518Z,57.00
2022-12-26T18:28:50.530Z,57.20
2022-12-26T18:31:17.832Z,85.90
2022-12-26T18:33:44.710Z,28.50
2022-12-26T18:36:11.755Z,1.00
2022-12-26T18:38:38.337Z,1.00
2022-12-26T18:41:04.889Z,1.00
2022-12-26T18:43:31.504Z,1.00
2022-12-26T18:45:58.340Z,1.00
2022-12-26T18:48:24.923Z,1.00
2022-12-26T18:50:51.526Z,1.00
2022-12-26T18:53:18.145Z,1.00
2022-12-26T18:55:44.733Z,1.00
2022-12-26T18:58:11.277Z,1.00
2022-12-26T19:00:37.961Z,1.00
2022-12-26T19:03:04.601Z,1.00
2022-12-26T19:05:34.390Z,1.00
2022-12-26T19:08:01.547Z,1.00
2022-12-26T19:10:29.165Z,1.00
2022-12-26T19:13:01.271Z,1.00
2022-12-26T19:15:32.206Z,1.00
2022-12-26T19:17:58.810Z,1.00
2022-12-26T19:20:25.893Z,1.00
2022-12-26T19:22:52.586Z,1.00
2022-12-26T19:25:19.588Z,1.00
2022-12-26T19:27:46.191Z,1.00
2022-12-26T19:30:12.951Z,1.00
2022-12-26T19:32:39.570Z,1.00
2022-12-26T19:35:06.361Z,1.00
2022-12-26T19:37:32.898Z,1.00
2022-12-26T19:39:59.468Z,1.00
2022-12-26T19:42:26.285Z,1.00
2022-12-26T19:44:53.469Z,1.00
2022-12-26T19:47:20.062Z,1.00
2022-12-26T19:49:46.669Z,1.00
2022-12-26T19:52:13.649Z,1.00
2022-12-26T19:54:40.398Z,1.00
2022-12-26T19:57:06.991Z,1.00
2022-12-26T19:59:36.640Z,1.00
2022-12-26T20:02:03.402Z,1.00
2022-12-26T20:04:30.156Z,1.00
2022-12-26T20:06:59.075Z,1.00
2022-12-26T20:09:25.623Z,1.00
2022-12-26T20:11:54.148Z,1.00
2022-12-26T20:14:21.068Z,1.00
2022-12-26T20:17:08.576Z,1.00
2022-12-26T20:19:35.351Z,1.00
2022-12-26T20:22:01.942Z,1.00
2022-12-26T20:24:28.486Z,1.00
2022-12-26T20:26:55.069Z,1.00
2022-12-26T20:29:21.615Z,1.00
2022-12-26T20:31:48.201Z,1.00
2022-12-26T20:34:14.958Z,1.00
2022-12-26T20:36:41.638Z,1.00
2022-12-26T20:39:10.488Z,1.00
2022-12-26T20:41:37.083Z,1.00
2022-12-26T20:44:03.722Z,1.00
2022-12-26T20:46:32.023Z,1.00
2022-12-26T20:48:58.925Z,1.00
2022-12-26T20:51:29.020Z,1.00
2022-12-26T20:53:59.797Z,1.00
2022-12-26T20:56:26.389Z,1.00
2022-12-26T20:58:52.946Z,1.00
2022-12-26T21:01:20.340Z,1.00
2022-12-26T21:03:47.094Z,1.00
2022-12-26T21:06:14.611Z,1.00
2022-12-26T21:08:42.073Z,1.00
2022-12-26T21:11:18.651Z,1.00
2022-12-26T21:13:45.560Z,1.00
2022-12-26T21:16:16.527Z,1.00
2022-12-26T21:18:43.143Z,1.00
2022-12-26T21:21:22.611Z,1.00
2022-12-26T21:23:49.206Z,1.00
2022-12-26T21:26:15.772Z,1.00
2022-12-26T21:28:42.340Z,1.00
2022-12-26T21:31:09.193Z,1.00
2022-12-26T21:33:40.686Z,1.00
2022-12-26T21:36:11.009Z,1.00
2022-12-26T21:38:37.576Z,1.00
2022-12-26T21:41:06.173Z,1.00
2022-12-26T21:43:32.710Z,1.00
2022-12-26T21:46:01.354Z,1.00
2022-12-26T21:48:28.183Z,1.00
2022-12-26T21:50:54.797Z,1.00
2022-12-26T21:53:21.448Z,1.00
2022-12-26T21:55:48.042Z,1.00
2022-12-26T21:58:14.836Z,1.00
2022-12-26T22:00:42.016Z,1.00
2022-12-26T22:03:27.397Z,1.00
2022-12-26T22:05:54.055Z,1.00
2022-12-26T22:08:20.614Z,1.00
2022-12-26T22:11:05.879Z,1.00
2022-12-26T22:13:39.660Z,1.00
2022-12-26T22:16:07.791Z,1.00
2022-12-26T22:18:34.419Z,1.00
2022-12-26T22:21:01.729Z,1.00
2022-12-26T22:23:28.281Z,1.00
2022-12-26T22:25:55.339Z,1.00
2022-12-26T22:28:23.533Z,1.00
2022-12-26T22:30:50.378Z,1.00
2022-12-26T22:33:17.388Z,1.00
2022-12-26T22:35:44.202Z,1.00
2022-12-26T22:38:10.750Z,1.00
2022-12-26T22:40:37.325Z,1.00
2022-12-26T22:43:03.985Z,1.00
2022-12-26T22:45:30.568Z,1.00
2022-12-26T22:47:57.108Z,1.00
2022-12-26T22:50:23.716Z,1.00
2022-12-26T22:52:51.857Z,1.00
2022-12-26T22:55:18.399Z,1.00
2022-12-26T22:57:51.078Z,1.00
2022-12-26T23:00:19.062Z,1.00
2022-12-26T23:02:45.689Z,1.00
2022-12-26T23:05:12.546Z,1.00
2022-12-26T23:07:39.250Z,1.00
2022-12-26T23:10:06.126Z,1.00
2022-12-26T23:12:45.022Z,1.00
2022-12-26T23:15:12.779Z,1.00
2022-12-26T23:17:58.139Z,1.00
2022-12-26T23:20:43.530Z,1.00
2022-12-26T23:23:10.231Z,1.00
2022-12-26T23:25:37.701Z,1.00
2022-12-26T23:28:22.885Z,1.00
2022-12-26T23:30:49.508Z,1.00
2022-12-26T23:33:16.074Z,1.00
2022-12-26T23:35:42.710Z,1.00
2022-12-26T23:38:09.451Z,1.00
2022-12-26T23:40:36.049Z,1.00
2022-12-26T23:43:02.627Z,1.00
2022-12-26T23:45:29.361Z,1.00
2022-12-26T23:47:55.929Z,1.00
2022-12-26T23:50:22.493Z,1.00
2022-12-26T23:52:49.068Z,1.00
2022-12-26T23:55:15.644Z,36.10
2022-12-26T23:57:42.196Z,48.80
